createdAt,value
2018-05-25T00:01:27.088Z,51.77
2018-05-25T00:03:55.293Z,51.03
2018-05-25T00:06:23.028Z,51.10
2018-05-25T00:08:51.002Z,54.57
2018-05-25T00:11:18.483Z,56.50
2018-05-25T00:13:45.975Z,58.58
2018-05-25T00:16:13.439Z,58.50
2018-05-25T00:18:40.943Z,60.27
2018-05-25T00:21:08.413Z,64.87
2018-05-25T00:23:35.891Z,69.83
2018-05-25T00:26:03.377Z,71.60
2018-05-25T00:28:30.840Z,69.83
2018-05-25T00:30:58.332Z,71.47
2018-05-25T00:33:25.811Z,72.83
2018-05-25T00:35:53.285Z,68.68
2018-05-25T00:38:20.780Z,69.80
2018-05-25T00:40:48.250Z,67.57
2018-05-25T00:43:15.746Z,68.83
2018-05-25T00:45:43.216Z,67.20
2018-05-25T00:48:10.688Z,66.43
2018-05-25T00:50:38.185Z,69.10
2018-05-25T00:53:05.656Z,68.50
2018-05-25T00:55:39.923Z,64.90
2018-05-25T00:58:07.396Z,56.77
2018-05-25T01:00:34.880Z,54.10
2018-05-25T01:03:02.345Z,49.70
2018-05-25T01:05:29.817Z,50.50
2018-05-25T01:07:57.299Z,49.43
2018-05-25T01:10:24.769Z,48.73
2018-05-25T01:12:52.480Z,48.20
2018-05-25T01:15:19.955Z,49.50
2018-05-25T01:17:47.448Z,46.70
2018-05-25T01:20:15.070Z,43.17
2018-05-25T01:22:42.541Z,47.47
2018-05-25T01:25:10.028Z,43.40
2018-05-25T01:27:37.501Z,43.43
2018-05-25T01:30:04.990Z,43.00
2018-05-25T01:32:32.455Z,43.60
2018-05-25T01:34:59.929Z,43.30
2018-05-25T01:37:27.428Z,43.83
2018-05-25T01:39:54.893Z,42.57
2018-05-25T01:42:22.383Z,38.73
2018-05-25T01:44:49.843Z,41.40
2018-05-25T01:47:17.317Z,39.40
2018-05-25T01:49:45.445Z,39.65
2018-05-25T01:52:12.917Z,39.47
2018-05-25T01:54:40.406Z,41.00
2018-05-25T01:57:07.877Z,39.67
2018-05-25T01:59:35.380Z,41.17
2018-05-25T02:02:02.855Z,37.80
2018-05-25T02:04:30.331Z,37.50
2018-05-25T02:06:57.833Z,38.53
2018-05-25T02:09:25.361Z,39.20
2018-05-25T02:11:52.864Z,38.30
2018-05-25T02:14:20.335Z,39.43
2018-05-25T02:16:48.698Z,35.20
2018-05-25T02:19:16.188Z,35.73
2018-05-25T02:21:43.663Z,35.00
2018-05-25T02:24:11.167Z,36.10
2018-05-25T02:26:38.648Z,30.65
2018-05-25T02:29:06.112Z,30.02
2018-05-25T02:31:33.604Z,33.00
2018-05-25T02:34:01.076Z,31.25
2018-05-25T02:36:28.584Z,32.37
2018-05-25T02:38:56.055Z,31.43
2018-05-25T02:41:23.529Z,28.70
2018-05-25T02:43:52.004Z,30.10
2018-05-25T02:46:19.478Z,30.10
2018-05-25T02:48:46.983Z,28.70
2018-05-25T02:51:14.473Z,29.20
2018-05-25T02:53:41.932Z,30.85
2018-05-25T02:56:09.424Z,31.77
2018-05-25T02:58:36.897Z,28.90
2018-05-25T03:01:04.405Z,31.33
2018-05-25T03:03:31.876Z,31.30
2018-05-25T03:05:59.334Z,29.13
2018-05-25T03:08:26.821Z,29.30
2018-05-25T03:10:54.291Z,28.48
2018-05-25T03:13:21.790Z,29.40
2018-05-25T03:15:49.264Z,32.30
2018-05-25T03:18:16.730Z,33.07
2018-05-25T03:20:44.451Z,30.70
2018-05-25T03:23:11.919Z,32.58
2018-05-25T03:25:39.461Z,31.80
2018-05-25T03:28:07.124Z,33.38
2018-05-25T03:30:34.595Z,31.30
2018-05-25T03:33:02.082Z,31.30
2018-05-25T03:35:29.551Z,32.13
2018-05-25T03:37:57.041Z,30.07
2018-05-25T03:40:24.511Z,29.17
2018-05-25T03:42:52.013Z,32.83
2018-05-25T03:45:19.484Z,31.50
2018-05-25T03:47:46.956Z,34.50
2018-05-25T03:50:14.451Z,34.60
2018-05-25T03:52:41.929Z,32.70
2018-05-25T03:55:09.412Z,33.50
2018-05-25T03:57:36.896Z,33.67
2018-05-25T04:00:16.212Z,31.60
2018-05-25T04:02:43.687Z,32.97
2018-05-25T04:05:11.175Z,30.57
2018-05-25T04:07:38.664Z,33.58
2018-05-25T04:10:06.155Z,31.00
2018-05-25T04:12:33.625Z,34.03
2018-05-25T04:15:01.092Z,34.23
2018-05-25T04:17:29.118Z,34.17
2018-05-25T04:19:57.183Z,32.60
2018-05-25T04:22:24.663Z,31.97
2018-05-25T04:24:52.132Z,32.70
2018-05-25T04:27:19.688Z,30.25
2018-05-25T04:29:47.184Z,47.03
2018-05-25T04:32:14.658Z,35.58
2018-05-25T04:34:42.148Z,27.55
2018-05-25T04:37:09.612Z,28.60
2018-05-25T04:39:37.084Z,26.77
2018-05-25T04:42:04.569Z,26.60
2018-05-25T04:44:32.047Z,23.70
2018-05-25T04:46:59.545Z,24.87
2018-05-25T04:49:27.052Z,25.13
2018-05-25T04:51:54.550Z,25.93
2018-05-25T04:54:22.024Z,25.23
2018-05-25T04:56:49.500Z,25.27
2018-05-25T04:59:17.013Z,21.37
2018-05-25T05:01:44.482Z,23.80
2018-05-25T05:04:11.965Z,21.67
2018-05-25T05:06:39.436Z,21.10
2018-05-25T05:09:06.933Z,22.80
2018-05-25T05:11:34.406Z,22.10
2018-05-25T05:14:01.898Z,20.30
2018-05-25T05:16:29.388Z,21.87
2018-05-25T05:18:56.863Z,20.42
2018-05-25T05:21:24.442Z,20.33
2018-05-25T05:23:51.907Z,20.27
2018-05-25T05:26:19.376Z,21.25
2018-05-25T05:28:46.852Z,22.53
2018-05-25T05:31:14.325Z,23.70
2018-05-25T05:33:41.994Z,20.77
2018-05-25T05:36:09.427Z,21.57
2018-05-25T05:38:36.895Z,21.77
2018-05-25T05:41:04.391Z,21.27
2018-05-25T05:43:31.863Z,20.57
2018-05-25T05:45:59.363Z,20.73
2018-05-25T05:48:26.842Z,21.62
2018-05-25T05:50:54.374Z,20.90
2018-05-25T05:53:21.821Z,22.33
2018-05-25T05:55:49.313Z,21.77
2018-05-25T05:58:17.069Z,21.47
2018-05-25T06:00:44.544Z,24.20
2018-05-25T06:03:12.061Z,22.17
2018-05-25T06:05:39.540Z,21.93
2018-05-25T06:08:07.039Z,24.52
2018-05-25T06:10:34.537Z,21.90
2018-05-25T06:13:02.008Z,21.43
2018-05-25T06:15:29.568Z,22.73
2018-05-25T06:17:57.029Z,21.40
2018-05-25T06:20:24.492Z,21.27
2018-05-25T06:22:51.976Z,19.43
2018-05-25T06:25:20.514Z,20.88
2018-05-25T06:27:48.010Z,19.73
2018-05-25T06:30:15.481Z,20.10
2018-05-25T06:32:42.944Z,20.43
2018-05-25T06:35:10.440Z,19.40
2018-05-25T06:37:37.907Z,20.17
2018-05-25T06:40:05.828Z,18.70
2018-05-25T06:42:33.299Z,19.60
2018-05-25T06:45:00.773Z,19.90
2018-05-25T06:47:28.264Z,17.58
2018-05-25T06:49:55.732Z,18.00
2018-05-25T06:52:23.925Z,18.23
2018-05-25T06:54:51.391Z,18.20
2018-05-25T06:57:18.864Z,17.50
2018-05-25T06:59:46.347Z,19.10
2018-05-25T07:02:13.814Z,19.00
2018-05-25T07:04:41.304Z,20.60
2018-05-25T07:07:08.768Z,19.80
2018-05-25T07:09:36.247Z,21.02
2018-05-25T07:12:03.727Z,21.40
2018-05-25T07:14:31.196Z,21.10
2018-05-25T07:16:58.699Z,23.87
2018-05-25T07:19:26.160Z,23.10
2018-05-25T07:21:53.952Z,23.90
2018-05-25T07:24:21.436Z,21.37
2018-05-25T07:26:48.951Z,22.97
2018-05-25T07:29:16.407Z,22.57
2018-05-25T07:31:43.875Z,22.77
2018-05-25T07:34:11.350Z,20.67
2018-05-25T07:36:38.850Z,21.00
2018-05-25T07:39:06.316Z,21.30
2018-05-25T07:41:33.816Z,20.27
2018-05-25T07:44:01.284Z,20.27
2018-05-25T07:46:28.742Z,21.10
2018-05-25T07:48:56.248Z,19.67
2018-05-25T07:51:23.722Z,19.60
2018-05-25T07:53:51.217Z,20.00
2018-05-25T07:56:18.689Z,21.52
2018-05-25T07:58:46.164Z,22.20
2018-05-25T08:01:13.645Z,22.50
2018-05-25T08:03:41.115Z,25.17
2018-05-25T08:06:08.607Z,23.60
2018-05-25T08:08:36.080Z,23.87
2018-05-25T08:11:03.595Z,24.50
2018-05-25T08:13:31.077Z,22.53
2018-05-25T08:15:58.537Z,21.73
2018-05-25T08:18:26.020Z,24.30
2018-05-25T08:20:53.483Z,22.97
2018-05-25T08:23:20.958Z,23.47
2018-05-25T08:25:48.419Z,26.83
2018-05-25T08:28:15.901Z,26.15
2018-05-25T08:30:43.375Z,29.53
2018-05-25T08:33:10.846Z,27.53
2018-05-25T08:35:38.340Z,26.60
2018-05-25T08:38:05.809Z,22.40
2018-05-25T08:40:33.284Z,23.60
2018-05-25T08:43:00.751Z,23.07
2018-05-25T08:45:28.235Z,22.73
2018-05-25T08:47:55.701Z,23.73
2018-05-25T08:50:23.172Z,25.80
2018-05-25T08:52:50.663Z,24.87
2018-05-25T08:55:18.125Z,25.77
2018-05-25T08:57:45.615Z,23.38
2018-05-25T09:00:13.075Z,23.23
2018-05-25T09:02:40.543Z,24.03
2018-05-25T09:05:08.021Z,23.90
2018-05-25T09:07:35.496Z,24.57
2018-05-25T09:10:02.995Z,23.17
2018-05-25T09:12:30.467Z,26.27
2018-05-25T09:14:57.927Z,25.73
2018-05-25T09:17:25.418Z,27.77
2018-05-25T09:19:52.884Z,29.92
2018-05-25T09:22:20.620Z,35.40
2018-05-25T09:24:48.096Z,35.17
2018-05-25T09:27:15.580Z,37.03
2018-05-25T09:29:43.897Z,40.03
2018-05-25T09:32:11.364Z,32.77
2018-05-25T09:34:39.181Z,29.40
2018-05-25T09:37:06.651Z,26.53
2018-05-25T09:39:34.134Z,26.20
2018-05-25T09:42:01.616Z,27.35
2018-05-25T09:44:29.083Z,28.00
2018-05-25T09:46:56.576Z,25.42
2018-05-25T09:49:24.048Z,26.27
2018-05-25T09:51:51.513Z,25.23
2018-05-25T09:54:19.004Z,25.53
2018-05-25T09:56:59.014Z,25.37
2018-05-25T09:59:26.494Z,25.98
2018-05-25T10:01:53.976Z,24.92
2018-05-25T10:04:21.452Z,23.80
2018-05-25T10:06:48.984Z,23.87
2018-05-25T10:09:16.456Z,24.27
2018-05-25T10:11:44.283Z,25.63
2018-05-25T10:14:11.758Z,24.17
2018-05-25T10:16:39.224Z,23.15
2018-05-25T10:19:06.728Z,25.17
2018-05-25T10:21:34.207Z,26.27
2018-05-25T10:24:01.690Z,26.23
2018-05-25T10:26:29.165Z,25.43
2018-05-25T10:28:56.627Z,28.00
2018-05-25T10:31:24.116Z,28.13
2018-05-25T10:33:52.386Z,27.02
2018-05-25T10:36:19.881Z,30.53
2018-05-25T10:38:47.355Z,30.37
2018-05-25T10:41:14.840Z,30.37
2018-05-25T10:43:42.321Z,30.63
2018-05-25T10:46:09.791Z,28.17
2018-05-25T10:48:37.324Z,31.13
2018-05-25T10:51:04.771Z,32.47
2018-05-25T10:53:32.251Z,33.20
2018-05-25T10:55:59.785Z,28.87
2018-05-25T10:58:27.196Z,31.07
2018-05-25T11:00:54.679Z,31.70
2018-05-25T11:03:22.148Z,27.97
2018-05-25T11:05:49.943Z,23.40
2018-05-25T11:08:17.405Z,23.23
2018-05-25T11:10:44.877Z,22.60
2018-05-25T11:13:12.379Z,20.67
2018-05-25T11:15:39.841Z,21.90
2018-05-25T11:18:07.316Z,15.47
2018-05-25T11:20:34.779Z,13.82
2018-05-25T11:23:02.242Z,14.30
2018-05-25T11:25:29.721Z,16.40
2018-05-25T11:27:57.214Z,15.13
2018-05-25T11:30:24.707Z,12.90
2018-05-25T11:32:52.172Z,11.40
2018-05-25T11:35:19.641Z,11.23
2018-05-25T11:37:47.122Z,10.90
2018-05-25T11:40:14.592Z,13.63
2018-05-25T11:42:42.459Z,12.80
2018-05-25T11:45:09.945Z,17.67
2018-05-25T11:47:37.421Z,15.30
2018-05-25T11:50:04.920Z,15.03
2018-05-25T11:52:32.408Z,15.80
2018-05-25T11:54:59.896Z,14.13
2018-05-25T11:57:27.372Z,14.30
2018-05-25T11:59:54.830Z,14.80
2018-05-25T12:02:22.317Z,14.20
2018-05-25T12:04:49.791Z,16.53
2018-05-25T12:07:17.287Z,18.70
2018-05-25T12:09:44.758Z,19.03
2018-05-25T12:12:12.236Z,19.45
2018-05-25T12:14:39.704Z,20.93
2018-05-25T12:17:07.187Z,19.80
2018-05-25T12:19:34.679Z,22.30
2018-05-25T12:22:02.162Z,23.10
2018-05-25T12:24:29.648Z,24.50
2018-05-25T12:26:58.029Z,24.47
2018-05-25T12:29:25.528Z,25.35
2018-05-25T12:31:53.006Z,26.10
2018-05-25T12:34:20.471Z,24.67
2018-05-25T12:36:47.968Z,25.12
2018-05-25T12:39:15.451Z,24.10
2018-05-25T12:41:42.949Z,24.70
2018-05-25T12:44:10.416Z,24.03
2018-05-25T12:46:37.898Z,21.90
2018-05-25T12:49:05.388Z,24.87
2018-05-25T12:51:32.853Z,24.17
2018-05-25T12:54:00.344Z,26.80
2018-05-25T12:56:27.819Z,25.60
2018-05-25T12:58:55.294Z,26.67
2018-05-25T13:01:22.772Z,26.13
2018-05-25T13:03:50.249Z,28.53
2018-05-25T13:06:17.747Z,26.57
2018-05-25T13:08:45.223Z,24.60
2018-05-25T13:11:12.732Z,27.93
2018-05-25T13:13:40.201Z,25.50
2018-05-25T13:16:07.677Z,23.27
2018-05-25T13:18:35.183Z,21.17
2018-05-25T13:21:02.653Z,18.10
2018-05-25T13:23:30.567Z,20.25
2018-05-25T13:25:58.045Z,19.83
2018-05-25T13:28:25.516Z,19.43
2018-05-25T13:30:53.001Z,26.40
2018-05-25T13:33:20.463Z,19.33
2018-05-25T13:35:47.970Z,17.23
2018-05-25T13:38:15.458Z,19.20
2018-05-25T13:40:42.936Z,19.50
2018-05-25T13:43:10.445Z,21.00
2018-05-25T13:45:37.916Z,18.40
2018-05-25T13:48:05.425Z,17.10
2018-05-25T13:50:32.890Z,17.33
2018-05-25T13:53:00.366Z,19.43
2018-05-25T13:55:27.855Z,28.40
2018-05-25T13:57:55.330Z,25.43
2018-05-25T14:00:22.825Z,17.30
2018-05-25T14:02:50.295Z,19.50
2018-05-25T14:05:17.764Z,25.97
2018-05-25T14:07:45.259Z,31.07
2018-05-25T14:10:12.740Z,32.07
2018-05-25T14:12:40.237Z,31.20
2018-05-25T14:15:07.709Z,36.43
2018-05-25T14:17:35.187Z,39.00
2018-05-25T14:20:02.667Z,38.10
2018-05-25T14:22:30.149Z,39.28
2018-05-25T14:24:57.635Z,36.47
2018-05-25T14:27:25.128Z,36.40
2018-05-25T14:29:52.638Z,36.40
2018-05-25T14:32:20.119Z,38.00
2018-05-25T14:34:47.587Z,39.37
2018-05-25T14:37:15.084Z,40.38
2018-05-25T14:39:42.566Z,33.60
2018-05-25T14:42:10.084Z,34.20
2018-05-25T14:44:37.552Z,38.95
2018-05-25T14:47:05.023Z,38.73
2018-05-25T14:49:32.516Z,35.47
2018-05-25T14:52:00.027Z,38.00
2018-05-25T14:54:27.492Z,38.07
2018-05-25T14:56:54.966Z,37.20
2018-05-25T14:59:22.483Z,35.20
2018-05-25T15:01:49.993Z,34.77
2018-05-25T15:04:17.464Z,31.83
2018-05-25T15:06:44.960Z,33.07
2018-05-25T15:09:12.798Z,34.20
2018-05-25T15:11:40.298Z,34.37
2018-05-25T15:14:07.767Z,31.70
2018-05-25T15:16:35.245Z,31.10
2018-05-25T15:19:02.726Z,31.00
2018-05-25T15:21:30.197Z,33.47
2018-05-25T15:23:57.849Z,34.97
2018-05-25T15:26:25.319Z,36.30
2018-05-25T15:28:52.788Z,38.60
2018-05-25T15:31:20.274Z,38.20
2018-05-25T15:33:47.760Z,38.95
2018-05-25T15:36:15.247Z,42.22
2018-05-25T15:38:42.715Z,42.75
2018-05-25T15:41:10.211Z,39.13
2018-05-25T15:43:37.694Z,26.27
2018-05-25T15:46:05.164Z,28.10
2018-05-25T15:48:33.037Z,27.52
2018-05-25T15:51:00.503Z,23.60
2018-05-25T15:53:27.976Z,27.03
2018-05-25T15:55:55.467Z,25.90
2018-05-25T15:58:22.933Z,26.00
2018-05-25T16:00:50.468Z,25.37
2018-05-25T16:03:17.951Z,23.47
2018-05-25T16:05:45.435Z,25.50
2018-05-25T16:08:12.918Z,26.53
2018-05-25T16:10:40.398Z,25.97
2018-05-25T16:13:07.872Z,28.80
2018-05-25T16:15:35.344Z,27.30
2018-05-25T16:18:02.834Z,25.90
2018-05-25T16:20:30.296Z,26.63
2018-05-25T16:22:57.777Z,30.10
2018-05-25T16:25:25.260Z,28.47
2018-05-25T16:27:52.744Z,30.70
2018-05-25T16:30:20.400Z,35.38
2018-05-25T16:32:47.876Z,32.30
2018-05-25T16:35:15.356Z,31.67
2018-05-25T16:37:42.841Z,30.00
2018-05-25T16:40:10.339Z,29.73
2018-05-25T16:42:37.827Z,29.25
2018-05-25T16:45:05.306Z,28.00
2018-05-25T16:47:32.775Z,27.63
2018-05-25T16:50:00.293Z,29.20
2018-05-25T16:52:27.751Z,28.57
2018-05-25T16:54:55.250Z,27.27
2018-05-25T16:57:22.723Z,25.42
2018-05-25T16:59:50.207Z,25.50
2018-05-25T17:02:17.693Z,27.23
2018-05-25T17:04:45.158Z,25.80
2018-05-25T17:07:12.653Z,25.20
2018-05-25T17:09:40.120Z,26.83
2018-05-25T17:12:07.601Z,27.33
2018-05-25T17:14:35.064Z,26.35
2018-05-25T17:17:02.573Z,28.43
2018-05-25T17:19:30.051Z,26.00
2018-05-25T17:21:57.544Z,27.50
2018-05-25T17:24:25.067Z,24.67
2018-05-25T17:26:52.541Z,28.20
2018-05-25T17:29:20.028Z,27.17
2018-05-25T17:31:47.503Z,28.17
2018-05-25T17:34:14.983Z,27.00
2018-05-25T17:36:42.478Z,25.50
2018-05-25T17:39:09.948Z,24.00
2018-05-25T17:41:37.428Z,24.47
2018-05-25T17:44:04.900Z,22.50
2018-05-25T17:46:32.388Z,21.80
2018-05-25T17:48:59.868Z,22.87
2018-05-25T17:51:27.334Z,21.30
2018-05-25T17:53:54.832Z,32.25
2018-05-25T17:56:22.292Z,20.37
2018-05-25T17:58:50.125Z,20.17
2018-05-25T18:01:17.609Z,21.97
2018-05-25T18:03:45.074Z,16.30
2018-05-25T18:06:12.588Z,19.97
2018-05-25T18:08:40.045Z,19.60
2018-05-25T18:11:07.512Z,27.23
2018-05-25T18:13:35.006Z,21.73
2018-05-25T18:16:02.474Z,19.08
2018-05-25T18:18:29.968Z,17.47
2018-05-25T18:20:57.547Z,18.70
2018-05-25T18:23:25.052Z,18.87
2018-05-25T18:25:53.664Z,20.98
2018-05-25T18:28:21.135Z,21.63
2018-05-25T18:30:48.646Z,21.37
2018-05-25T18:33:16.116Z,20.43
2018-05-25T18:35:43.617Z,25.37
2018-05-25T18:38:11.089Z,23.50
2018-05-25T18:40:38.559Z,27.33
2018-05-25T18:43:06.050Z,28.47
2018-05-25T18:45:33.522Z,28.87
2018-05-25T18:48:01.009Z,31.75
2018-05-25T18:50:28.490Z,34.00
2018-05-25T18:52:56.926Z,37.00
2018-05-25T18:55:24.408Z,174.23
2018-05-25T18:57:51.869Z,65.53
2018-05-25T19:00:19.358Z,42.27
2018-05-25T19:02:46.839Z,37.73
2018-05-25T19:05:14.312Z,42.23
2018-05-25T19:07:41.812Z,51.03
2018-05-25T19:10:09.399Z,49.40
2018-05-25T19:12:36.904Z,53.40
2018-05-25T19:15:04.388Z,55.07
2018-05-25T19:17:31.856Z,52.77
2018-05-25T19:19:59.356Z,52.90
2018-05-25T19:22:26.844Z,59.57
2018-05-25T19:24:54.329Z,71.87
2018-05-25T19:27:21.798Z,85.53
2018-05-25T19:29:49.282Z,83.23
2018-05-25T19:32:16.751Z,68.40
2018-05-25T19:34:44.228Z,64.90
2018-05-25T19:37:11.712Z,58.50
2018-05-25T19:39:39.179Z,65.27
2018-05-25T19:42:06.658Z,68.20
2018-05-25T19:44:34.127Z,72.07
2018-05-25T19:47:04.511Z,71.80
2018-05-25T19:49:31.980Z,77.00
2018-05-25T19:51:59.455Z,88.50
2018-05-25T19:54:26.958Z,80.95
2018-05-25T19:56:54.453Z,78.60
2018-05-25T19:59:22.034Z,82.43
2018-05-25T20:01:49.515Z,73.90
2018-05-25T20:04:16.988Z,72.57
2018-05-25T20:06:44.476Z,74.15
2018-05-25T20:09:11.958Z,74.22
2018-05-25T20:11:39.461Z,147.93
2018-05-25T20:14:07.515Z,233.57
2018-05-25T20:16:34.983Z,79.70
2018-05-25T20:19:02.473Z,72.10
2018-05-25T20:21:29.948Z,72.90
2018-05-25T20:23:57.464Z,74.95
2018-05-25T20:26:25.344Z,67.68
2018-05-25T20:28:52.811Z,74.47
2018-05-25T20:31:20.295Z,77.30
2018-05-25T20:33:47.775Z,87.13
2018-05-25T20:36:15.263Z,83.95
2018-05-25T20:38:42.752Z,76.23
2018-05-25T20:41:10.228Z,81.57
2018-05-25T20:43:37.712Z,87.97
2018-05-25T20:46:05.200Z,99.90
2018-05-25T20:48:32.689Z,87.17
2018-05-25T20:51:00.159Z,85.37
2018-05-25T20:53:27.643Z,81.87
2018-05-25T20:55:55.138Z,79.90
2018-05-25T20:58:22.619Z,71.37
2018-05-25T21:00:50.129Z,81.77
2018-05-25T21:03:17.600Z,71.13
2018-05-25T21:05:45.077Z,70.50
2018-05-25T21:08:12.566Z,72.20
2018-05-25T21:10:40.037Z,72.23
2018-05-25T21:13:07.532Z,74.40
2018-05-25T21:15:35.014Z,71.77
2018-05-25T21:18:02.522Z,142.02
2018-05-25T21:20:29.992Z,93.15
2018-05-25T21:22:57.468Z,74.80
2018-05-25T21:25:24.976Z,76.47
2018-05-25T21:27:52.449Z,76.30
2018-05-25T21:30:19.955Z,64.87
2018-05-25T21:32:47.442Z,66.07
2018-05-25T21:35:14.926Z,73.13
2018-05-25T21:37:42.406Z,61.57
2018-05-25T21:40:09.879Z,69.50
2018-05-25T21:42:37.398Z,78.60
2018-05-25T21:45:04.867Z,75.43
2018-05-25T21:47:32.346Z,79.50
2018-05-25T21:49:59.831Z,82.93
2018-05-25T21:52:27.304Z,77.97
2018-05-25T21:54:54.796Z,67.53
2018-05-25T21:57:22.291Z,71.13
2018-05-25T21:59:49.797Z,69.93
2018-05-25T22:02:17.265Z,66.13
2018-05-25T22:04:44.759Z,75.07
2018-05-25T22:07:12.240Z,76.00
2018-05-25T22:09:39.718Z,65.87
2018-05-25T22:12:07.206Z,71.17
2018-05-25T22:14:34.684Z,66.47
2018-05-25T22:17:02.187Z,74.53
2018-05-25T22:19:29.668Z,66.18
2018-05-25T22:21:57.156Z,63.73
2018-05-25T22:24:24.647Z,66.23
2018-05-25T22:26:52.129Z,73.37
2018-05-25T22:29:19.631Z,76.80
2018-05-25T22:31:47.116Z,77.07
2018-05-25T22:34:14.595Z,87.07
2018-05-25T22:36:42.087Z,91.00
2018-05-25T22:39:09.553Z,90.43
2018-05-25T22:41:37.068Z,94.07
2018-05-25T22:44:16.148Z,98.90
2018-05-25T22:46:55.492Z,92.93
2018-05-25T22:49:34.792Z,90.40
2018-05-25T22:52:14.023Z,99.60
2018-05-25T22:54:42.300Z,105.97
2018-05-25T22:57:09.805Z,115.97
2018-05-25T22:59:37.299Z,111.77
2018-05-25T23:02:05.648Z,95.27
2018-05-25T23:04:33.138Z,93.07
2018-05-25T23:07:00.616Z,85.60
2018-05-25T23:09:28.588Z,86.23
2018-05-25T23:11:56.072Z,79.57
2018-05-25T23:14:23.561Z,81.47
2018-05-25T23:16:51.036Z,82.80
2018-05-25T23:19:18.511Z,86.30
2018-05-25T23:21:46.008Z,97.67
2018-05-25T23:24:13.490Z,91.43
2018-05-25T23:26:41.159Z,87.53
2018-05-25T23:29:08.637Z,88.90
2018-05-25T23:31:36.117Z,82.07
2018-05-25T23:34:03.611Z,80.83
2018-05-25T23:36:31.085Z,76.63
2018-05-25T23:38:58.580Z,88.20
2018-05-25T23:41:26.064Z,76.60
2018-05-25T23:43:53.544Z,69.28
2018-05-25T23:46:21.048Z,70.60
2018-05-25T23:48:48.568Z,79.85
2018-05-25T23:51:16.042Z,72.93
2018-05-25T23:53:43.524Z,71.62
2018-05-25T23:56:11.014Z,96.90
2018-05-25T23:58:38.512Z,89.10
